sensor_id;sensor_type;location;lat;lon;timestamp;P1;durP1;ratioP1;P2;durP2;ratioP2
44750;SDS011;30477;48.224;11.470;2023-01-16T00:00:57;1.20;;;1.00;;
44750;SDS011;30477;48.224;11.470;2023-01-16T00:05:49;3.65;;;1.25;;
44750;SDS011;30477;48.224;11.470;2023-01-16T00:08:14;2.77;;;1.10;;
44750;SDS011;30477;48.224;11.470;2023-01-16T00:10:40;4.13;;;1.20;;
44750;SDS011;30477;48.224;11.470;2023-01-16T00:13:05;3.03;;;1.03;;
44750;SDS011;30477;48.224;11.470;2023-01-16T00:15:31;2.10;;;1.17;;
44750;SDS011;30477;48.224;11.470;2023-01-16T00:17:57;3.08;;;1.30;;
44750;SDS011;30477;48.224;11.470;2023-01-16T00:20:22;2.67;;;1.20;;
44750;SDS011;30477;48.224;11.470;2023-01-16T00:22:48;2.55;;;1.10;;
44750;SDS011;30477;48.224;11.470;2023-01-16T00:25:14;4.03;;;1.10;;
44750;SDS011;30477;48.224;11.470;2023-01-16T00:27:39;5.60;;;1.20;;
44750;SDS011;30477;48.224;11.470;2023-01-16T00:30:05;3.03;;;1.20;;
44750;SDS011;30477;48.224;11.470;2023-01-16T00:32:31;3.08;;;1.20;;
44750;SDS011;30477;48.224;11.470;2023-01-16T00:34:57;2.45;;;1.00;;
44750;SDS011;30477;48.224;11.470;2023-01-16T00:37:22;2.30;;;1.03;;
44750;SDS011;30477;48.224;11.470;2023-01-16T00:39:48;1.83;;;0.95;;
44750;SDS011;30477;48.224;11.470;2023-01-16T00:42:13;3.03;;;0.97;;
44750;SDS011;30477;48.224;11.470;2023-01-16T00:44:39;3.00;;;1.05;;
44750;SDS011;30477;48.224;11.470;2023-01-16T00:47:05;2.00;;;1.02;;
44750;SDS011;30477;48.224;11.470;2023-01-16T00:49:31;2.53;;;1.00;;
44750;SDS011;30477;48.224;11.470;2023-01-16T00:51:56;2.30;;;1.10;;
44750;SDS011;30477;48.224;11.470;2023-01-16T00:54:21;5.10;;;1.50;;
44750;SDS011;30477;48.224;11.470;2023-01-16T00:56:46;1.53;;;1.10;;
44750;SDS011;30477;48.224;11.470;2023-01-16T00:59:12;1.97;;;1.10;;
44750;SDS011;30477;48.224;11.470;2023-01-16T01:01:37;1.67;;;1.00;;
44750;SDS011;30477;48.224;11.470;2023-01-16T01:04:03;2.03;;;1.10;;
44750;SDS011;30477;48.224;11.470;2023-01-16T01:06:28;2.27;;;1.17;;
44750;SDS011;30477;48.224;11.470;2023-01-16T01:08:54;0.97;;;0.83;;
44750;SDS011;30477;48.224;11.470;2023-01-16T01:11:19;3.27;;;1.07;;
44750;SDS011;30477;48.224;11.470;2023-01-16T01:13:45;1.40;;;1.00;;
44750;SDS011;30477;48.224;11.470;2023-01-16T01:16:11;2.70;;;1.20;;
44750;SDS011;30477;48.224;11.470;2023-01-16T01:18:36;3.55;;;1.33;;
44750;SDS011;30477;48.224;11.470;2023-01-16T01:21:02;2.15;;;1.20;;
44750;SDS011;30477;48.224;11.470;2023-01-16T01:23:28;5.57;;;1.27;;
44750;SDS011;30477;48.224;11.470;2023-01-16T01:25:54;1.83;;;1.10;;
44750;SDS011;30477;48.224;11.470;2023-01-16T01:28:19;2.93;;;1.17;;
44750;SDS011;30477;48.224;11.470;2023-01-16T01:30:45;1.40;;;0.93;;
44750;SDS011;30477;48.224;11.470;2023-01-16T01:33:10;3.07;;;1.13;;
44750;SDS011;30477;48.224;11.470;2023-01-16T01:35:36;1.40;;;0.98;;
44750;SDS011;30477;48.224;11.470;2023-01-16T01:38:02;2.15;;;0.85;;
44750;SDS011;30477;48.224;11.470;2023-01-16T01:40:28;1.98;;;1.15;;
44750;SDS011;30477;48.224;11.470;2023-01-16T01:42:53;1.90;;;1.17;;
44750;SDS011;30477;48.224;11.470;2023-01-16T01:45:26;1.10;;;1.00;;
44750;SDS011;30477;48.224;11.470;2023-01-16T01:53:15;3.60;;;1.65;;
44750;SDS011;30477;48.224;11.470;2023-01-16T01:55:49;4.32;;;1.30;;
44750;SDS011;30477;48.224;11.470;2023-01-16T01:58:17;1.95;;;1.25;;
44750;SDS011;30477;48.224;11.470;2023-01-16T02:00:47;1.60;;;1.10;;
44750;SDS011;30477;48.224;11.470;2023-01-16T02:03:16;3.30;;;1.20;;
44750;SDS011;30477;48.224;11.470;2023-01-16T02:05:51;2.85;;;1.38;;
44750;SDS011;30477;48.224;11.470;2023-01-16T02:08:19;3.33;;;0.90;;
44750;SDS011;30477;48.224;11.470;2023-01-16T02:10:49;2.65;;;1.13;;
44750;SDS011;30477;48.224;11.470;2023-01-16T02:13:17;1.52;;;1.05;;
44750;SDS011;30477;48.224;11.470;2023-01-16T02:15:42;1.43;;;1.10;;
44750;SDS011;30477;48.224;11.470;2023-01-16T02:18:27;1.35;;;1.05;;
44750;SDS011;30477;48.224;11.470;2023-01-16T02:24:21;1.20;;;0.90;;
44750;SDS011;30477;48.224;11.470;2023-01-16T02:29:50;3.10;;;1.17;;
44750;SDS011;30477;48.224;11.470;2023-01-16T02:32:32;1.23;;;0.80;;
44750;SDS011;30477;48.224;11.470;2023-01-16T02:35:10;1.85;;;0.90;;
44750;SDS011;30477;48.224;11.470;2023-01-16T02:46:08;1.00;;;0.82;;
44750;SDS011;30477;48.224;11.470;2023-01-16T02:48:50;2.80;;;0.80;;
44750;SDS011;30477;48.224;11.470;2023-01-16T02:51:37;1.60;;;0.82;;
44750;SDS011;30477;48.224;11.470;2023-01-16T02:56:47;1.63;;;1.00;;
44750;SDS011;30477;48.224;11.470;2023-01-16T02:59:16;1.77;;;1.13;;
44750;SDS011;30477;48.224;11.470;2023-01-16T03:01:43;3.13;;;1.13;;
44750;SDS011;30477;48.224;11.470;2023-01-16T03:07:15;3.58;;;1.17;;
44750;SDS011;30477;48.224;11.470;2023-01-16T03:15:57;2.35;;;1.00;;
44750;SDS011;30477;48.224;11.470;2023-01-16T03:23:55;1.35;;;1.05;;
44750;SDS011;30477;48.224;11.470;2023-01-16T03:26:42;3.30;;;1.30;;
44750;SDS011;30477;48.224;11.470;2023-01-16T03:34:30;1.20;;;1.10;;
44750;SDS011;30477;48.224;11.470;2023-01-16T03:37:10;1.07;;;0.93;;
44750;SDS011;30477;48.224;11.470;2023-01-16T03:39:45;1.70;;;1.10;;
44750;SDS011;30477;48.224;11.470;2023-01-16T03:42:17;1.73;;;1.00;;
44750;SDS011;30477;48.224;11.470;2023-01-16T03:44:48;1.67;;;1.00;;
44750;SDS011;30477;48.224;11.470;2023-01-16T03:47:22;1.70;;;1.20;;
44750;SDS011;30477;48.224;11.470;2023-01-16T03:49:54;1.95;;;1.23;;
44750;SDS011;30477;48.224;11.470;2023-01-16T03:52:24;1.20;;;1.10;;
44750;SDS011;30477;48.224;11.470;2023-01-16T03:55:14;2.63;;;1.00;;
44750;SDS011;30477;48.224;11.470;2023-01-16T03:57:44;1.33;;;1.10;;
44750;SDS011;30477;48.224;11.470;2023-01-16T04:00:15;2.15;;;1.35;;
44750;SDS011;30477;48.224;11.470;2023-01-16T04:05:31;0.80;;;0.80;;
44750;SDS011;30477;48.224;11.470;2023-01-16T04:08:08;2.00;;;0.80;;
44750;SDS011;30477;48.224;11.470;2023-01-16T04:10:38;1.17;;;0.95;;
44750;SDS011;30477;48.224;11.470;2023-01-16T04:13:08;1.25;;;0.90;;
44750;SDS011;30477;48.224;11.470;2023-01-16T04:15:37;0.90;;;0.82;;
44750;SDS011;30477;48.224;11.470;2023-01-16T04:18:06;1.55;;;0.90;;
44750;SDS011;30477;48.224;11.470;2023-01-16T04:20:32;1.23;;;0.90;;
44750;SDS011;30477;48.224;11.470;2023-01-16T04:22:59;2.53;;;1.00;;
44750;SDS011;30477;48.224;11.470;2023-01-16T04:25:24;0.70;;;0.67;;
44750;SDS011;30477;48.224;11.470;2023-01-16T04:27:50;2.43;;;1.20;;
44750;SDS011;30477;48.224;11.470;2023-01-16T04:30:15;1.30;;;0.87;;
44750;SDS011;30477;48.224;11.470;2023-01-16T04:32:41;0.87;;;0.80;;
44750;SDS011;30477;48.224;11.470;2023-01-16T04:35:07;1.90;;;1.10;;
44750;SDS011;30477;48.224;11.470;2023-01-16T04:39:58;1.15;;;1.00;;
44750;SDS011;30477;48.224;11.470;2023-01-16T04:42:24;1.87;;;1.20;;
44750;SDS011;30477;48.224;11.470;2023-01-16T04:44:50;1.73;;;1.27;;
44750;SDS011;30477;48.224;11.470;2023-01-16T04:47:15;2.77;;;1.07;;
44750;SDS011;30477;48.224;11.470;2023-01-16T04:49:40;3.70;;;1.30;;
44750;SDS011;30477;48.224;11.470;2023-01-16T04:52:06;2.60;;;1.10;;
44750;SDS011;30477;48.224;11.470;2023-01-16T04:54:31;3.43;;;1.30;;
44750;SDS011;30477;48.224;11.470;2023-01-16T04:56:56;2.17;;;1.20;;
44750;SDS011;30477;48.224;11.470;2023-01-16T04:59:22;2.43;;;1.30;;
44750;SDS011;30477;48.224;11.470;2023-01-16T05:01:47;3.90;;;1.70;;
44750;SDS011;30477;48.224;11.470;2023-01-16T05:04:13;1.83;;;1.10;;
44750;SDS011;30477;48.224;11.470;2023-01-16T05:06:40;2.75;;;1.20;;
44750;SDS011;30477;48.224;11.470;2023-01-16T05:09:05;2.47;;;1.47;;
44750;SDS011;30477;48.224;11.470;2023-01-16T05:11:31;1.30;;;1.20;;
44750;SDS011;30477;48.224;11.470;2023-01-16T05:13:57;2.00;;;1.20;;
44750;SDS011;30477;48.224;11.470;2023-01-16T05:16:22;2.17;;;1.60;;
44750;SDS011;30477;48.224;11.470;2023-01-16T05:18:48;2.60;;;1.50;;
44750;SDS011;30477;48.224;11.470;2023-01-16T05:21:13;2.53;;;1.60;;
44750;SDS011;30477;48.224;11.470;2023-01-16T05:23:38;4.30;;;1.70;;
44750;SDS011;30477;48.224;11.470;2023-01-16T05:26:04;3.33;;;1.80;;
44750;SDS011;30477;48.224;11.470;2023-01-16T05:28:30;2.60;;;1.30;;
44750;SDS011;30477;48.224;11.470;2023-01-16T05:30:56;2.33;;;1.60;;
44750;SDS011;30477;48.224;11.470;2023-01-16T05:33:22;3.90;;;2.03;;
44750;SDS011;30477;48.224;11.470;2023-01-16T05:35:47;3.03;;;1.60;;
44750;SDS011;30477;48.224;11.470;2023-01-16T05:38:15;3.17;;;1.55;;
44750;SDS011;30477;48.224;11.470;2023-01-16T05:40:42;2.40;;;1.40;;
44750;SDS011;30477;48.224;11.470;2023-01-16T05:43:08;2.28;;;1.48;;
44750;SDS011;30477;48.224;11.470;2023-01-16T05:45:34;2.13;;;1.60;;
44750;SDS011;30477;48.224;11.470;2023-01-16T05:47:59;3.20;;;1.70;;
44750;SDS011;30477;48.224;11.470;2023-01-16T05:50:24;2.97;;;1.67;;
44750;SDS011;30477;48.224;11.470;2023-01-16T05:52:50;4.87;;;1.80;;
44750;SDS011;30477;48.224;11.470;2023-01-16T05:55:15;5.40;;;1.43;;
44750;SDS011;30477;48.224;11.470;2023-01-16T05:57:41;3.45;;;1.80;;
44750;SDS011;30477;48.224;11.470;2023-01-16T06:00:06;3.60;;;1.67;;
44750;SDS011;30477;48.224;11.470;2023-01-16T06:02:32;3.10;;;1.70;;
44750;SDS011;30477;48.224;11.470;2023-01-16T06:04:58;3.63;;;1.27;;
44750;SDS011;30477;48.224;11.470;2023-01-16T06:07:23;3.73;;;1.50;;
44750;SDS011;30477;48.224;11.470;2023-01-16T06:09:49;2.17;;;1.60;;
44750;SDS011;30477;48.224;11.470;2023-01-16T06:12:14;2.93;;;1.80;;
44750;SDS011;30477;48.224;11.470;2023-01-16T06:14:41;2.50;;;1.67;;
44750;SDS011;30477;48.224;11.470;2023-01-16T06:17:06;4.72;;;1.80;;
44750;SDS011;30477;48.224;11.470;2023-01-16T06:19:32;4.97;;;1.80;;
44750;SDS011;30477;48.224;11.470;2023-01-16T06:21:57;4.20;;;1.50;;
44750;SDS011;30477;48.224;11.470;2023-01-16T06:24:23;3.13;;;1.80;;
44750;SDS011;30477;48.224;11.470;2023-01-16T06:26:48;3.53;;;1.90;;
44750;SDS011;30477;48.224;11.470;2023-01-16T06:29:13;6.10;;;2.23;;
44750;SDS011;30477;48.224;11.470;2023-01-16T06:31:39;1.77;;;1.60;;
44750;SDS011;30477;48.224;11.470;2023-01-16T06:34:04;5.33;;;1.83;;
44750;SDS011;30477;48.224;11.470;2023-01-16T06:36:29;5.27;;;1.70;;
44750;SDS011;30477;48.224;11.470;2023-01-16T06:38:55;2.60;;;1.60;;
44750;SDS011;30477;48.224;11.470;2023-01-16T06:41:20;3.17;;;2.07;;
44750;SDS011;30477;48.224;11.470;2023-01-16T06:43:46;3.70;;;2.13;;
44750;SDS011;30477;48.224;11.470;2023-01-16T06:46:11;1.73;;;1.60;;
44750;SDS011;30477;48.224;11.470;2023-01-16T06:48:37;4.43;;;1.60;;
44750;SDS011;30477;48.224;11.470;2023-01-16T06:51:02;2.53;;;1.93;;
44750;SDS011;30477;48.224;11.470;2023-01-16T06:53:28;1.90;;;1.50;;
44750;SDS011;30477;48.224;11.470;2023-01-16T06:55:53;2.13;;;1.50;;
44750;SDS011;30477;48.224;11.470;2023-01-16T06:58:19;3.83;;;1.55;;
44750;SDS011;30477;48.224;11.470;2023-01-16T07:00:44;2.97;;;1.33;;
44750;SDS011;30477;48.224;11.470;2023-01-16T07:03:10;4.20;;;1.50;;
44750;SDS011;30477;48.224;11.470;2023-01-16T07:05:35;2.45;;;1.50;;
44750;SDS011;30477;48.224;11.470;2023-01-16T07:08:01;4.53;;;1.73;;
44750;SDS011;30477;48.224;11.470;2023-01-16T07:10:27;2.65;;;1.73;;
44750;SDS011;30477;48.224;11.470;2023-01-16T07:12:53;2.80;;;1.92;;
44750;SDS011;30477;48.224;11.470;2023-01-16T07:15:19;6.93;;;2.50;;
44750;SDS011;30477;48.224;11.470;2023-01-16T07:18:04;6.28;;;2.97;;
44750;SDS011;30477;48.224;11.470;2023-01-16T07:20:50;4.82;;;2.70;;
44750;SDS011;30477;48.224;11.470;2023-01-16T07:23:37;2.70;;;1.70;;
44750;SDS011;30477;48.224;11.470;2023-01-16T07:26:07;3.50;;;1.90;;
44750;SDS011;30477;48.224;11.470;2023-01-16T07:28:34;3.80;;;1.73;;
44750;SDS011;30477;48.224;11.470;2023-01-16T07:30:59;4.57;;;2.08;;
44750;SDS011;30477;48.224;11.470;2023-01-16T07:33:30;3.25;;;2.03;;
44750;SDS011;30477;48.224;11.470;2023-01-16T07:35:55;4.37;;;2.10;;
44750;SDS011;30477;48.224;11.470;2023-01-16T07:38:21;6.20;;;1.90;;
44750;SDS011;30477;48.224;11.470;2023-01-16T07:40:46;3.83;;;2.07;;
44750;SDS011;30477;48.224;11.470;2023-01-16T07:43:12;3.57;;;2.10;;
44750;SDS011;30477;48.224;11.470;2023-01-16T07:45:37;3.57;;;1.70;;
44750;SDS011;30477;48.224;11.470;2023-01-16T07:48:03;2.00;;;1.73;;
44750;SDS011;30477;48.224;11.470;2023-01-16T07:50:28;5.97;;;2.50;;
44750;SDS011;30477;48.224;11.470;2023-01-16T07:52:54;4.07;;;1.52;;
44750;SDS011;30477;48.224;11.470;2023-01-16T07:55:19;2.20;;;1.50;;
44750;SDS011;30477;48.224;11.470;2023-01-16T07:57:45;1.77;;;1.30;;
44750;SDS011;30477;48.224;11.470;2023-01-16T08:00:11;2.87;;;1.50;;
44750;SDS011;30477;48.224;11.470;2023-01-16T08:02:37;3.85;;;1.80;;
44750;SDS011;30477;48.224;11.470;2023-01-16T08:05:04;4.72;;;1.70;;
44750;SDS011;30477;48.224;11.470;2023-01-16T08:07:29;3.80;;;1.75;;
44750;SDS011;30477;48.224;11.470;2023-01-16T08:09:55;2.50;;;1.50;;
44750;SDS011;30477;48.224;11.470;2023-01-16T08:12:21;4.17;;;1.70;;
44750;SDS011;30477;48.224;11.470;2023-01-16T08:14:47;2.55;;;1.52;;
44750;SDS011;30477;48.224;11.470;2023-01-16T08:17:12;1.87;;;1.33;;
44750;SDS011;30477;48.224;11.470;2023-01-16T08:19:38;4.77;;;1.70;;
44750;SDS011;30477;48.224;11.470;2023-01-16T08:22:03;4.23;;;1.70;;
44750;SDS011;30477;48.224;11.470;2023-01-16T08:24:29;3.67;;;1.60;;
44750;SDS011;30477;48.224;11.470;2023-01-16T08:26:55;2.17;;;1.88;;
44750;SDS011;30477;48.224;11.470;2023-01-16T08:29:21;3.15;;;1.67;;
44750;SDS011;30477;48.224;11.470;2023-01-16T08:31:47;3.10;;;2.00;;
44750;SDS011;30477;48.224;11.470;2023-01-16T08:34:12;4.67;;;1.83;;
44750;SDS011;30477;48.224;11.470;2023-01-16T08:36:37;2.30;;;1.60;;
44750;SDS011;30477;48.224;11.470;2023-01-16T08:39:03;4.43;;;1.83;;
44750;SDS011;30477;48.224;11.470;2023-01-16T08:41:28;3.67;;;1.75;;
44750;SDS011;30477;48.224;11.470;2023-01-16T08:44:12;2.83;;;1.58;;
44750;SDS011;30477;48.224;11.470;2023-01-16T08:46:58;3.97;;;1.98;;
44750;SDS011;30477;48.224;11.470;2023-01-16T08:49:45;2.30;;;1.73;;
44750;SDS011;30477;48.224;11.470;2023-01-16T08:52:31;3.85;;;1.90;;
44750;SDS011;30477;48.224;11.470;2023-01-16T08:54:58;3.00;;;1.70;;
44750;SDS011;30477;48.224;11.470;2023-01-16T08:57:26;2.03;;;1.73;;
44750;SDS011;30477;48.224;11.470;2023-01-16T08:59:55;1.73;;;1.63;;
44750;SDS011;30477;48.224;11.470;2023-01-16T09:02:21;2.13;;;1.92;;
44750;SDS011;30477;48.224;11.470;2023-01-16T09:04:47;3.40;;;1.70;;
44750;SDS011;30477;48.224;11.470;2023-01-16T09:07:14;2.70;;;1.90;;
44750;SDS011;30477;48.224;11.470;2023-01-16T09:09:40;2.75;;;2.17;;
44750;SDS011;30477;48.224;11.470;2023-01-16T09:12:07;2.70;;;2.13;;
44750;SDS011;30477;48.224;11.470;2023-01-16T09:14:55;3.78;;;2.40;;
44750;SDS011;30477;48.224;11.470;2023-01-16T09:17:20;3.00;;;2.57;;
44750;SDS011;30477;48.224;11.470;2023-01-16T09:19:46;5.22;;;2.65;;
44750;SDS011;30477;48.224;11.470;2023-01-16T09:22:12;4.03;;;2.30;;
44750;SDS011;30477;48.224;11.470;2023-01-16T09:24:37;4.20;;;2.67;;
44750;SDS011;30477;48.224;11.470;2023-01-16T09:27:04;3.10;;;2.50;;
44750;SDS011;30477;48.224;11.470;2023-01-16T09:29:29;5.30;;;2.53;;
44750;SDS011;30477;48.224;11.470;2023-01-16T09:31:55;5.17;;;2.73;;
44750;SDS011;30477;48.224;11.470;2023-01-16T09:34:20;3.00;;;2.53;;
44750;SDS011;30477;48.224;11.470;2023-01-16T09:36:45;6.27;;;2.60;;
44750;SDS011;30477;48.224;11.470;2023-01-16T09:39:11;4.17;;;2.53;;
44750;SDS011;30477;48.224;11.470;2023-01-16T09:41:40;4.70;;;2.80;;
44750;SDS011;30477;48.224;11.470;2023-01-16T09:44:32;3.75;;;2.83;;
44750;SDS011;30477;48.224;11.470;2023-01-16T09:46:57;3.65;;;2.72;;
44750;SDS011;30477;48.224;11.470;2023-01-16T09:49:26;3.17;;;2.10;;
44750;SDS011;30477;48.224;11.470;2023-01-16T09:51:58;2.88;;;2.28;;
44750;SDS011;30477;48.224;11.470;2023-01-16T09:54:49;2.70;;;2.30;;
44750;SDS011;30477;48.224;11.470;2023-01-16T09:57:38;2.30;;;2.10;;
44750;SDS011;30477;48.224;11.470;2023-01-16T10:00:24;2.83;;;2.17;;
44750;SDS011;30477;48.224;11.470;2023-01-16T10:02:51;2.92;;;2.13;;
44750;SDS011;30477;48.224;11.470;2023-01-16T10:05:17;3.17;;;2.30;;
44750;SDS011;30477;48.224;11.470;2023-01-16T10:15:53;4.82;;;1.95;;
44750;SDS011;30477;48.224;11.470;2023-01-16T10:21:33;5.18;;;2.10;;
44750;SDS011;30477;48.224;11.470;2023-01-16T10:27:12;1.83;;;1.40;;
44750;SDS011;30477;48.224;11.470;2023-01-16T10:32:40;2.50;;;1.67;;
44750;SDS011;30477;48.224;11.470;2023-01-16T10:35:20;3.75;;;1.50;;
44750;SDS011;30477;48.224;11.470;2023-01-16T10:37:48;1.85;;;1.52;;
44750;SDS011;30477;48.224;11.470;2023-01-16T10:42:44;1.38;;;1.25;;
44750;SDS011;30477;48.224;11.470;2023-01-16T10:45:36;2.33;;;1.30;;
44750;SDS011;30477;48.224;11.470;2023-01-16T10:51:04;2.25;;;1.40;;
44750;SDS011;30477;48.224;11.470;2023-01-16T10:53:31;4.90;;;1.73;;
44750;SDS011;30477;48.224;11.470;2023-01-16T10:55:59;1.45;;;1.35;;
44750;SDS011;30477;48.224;11.470;2023-01-16T11:00:56;3.67;;;1.50;;
44750;SDS011;30477;48.224;11.470;2023-01-16T11:03:35;2.30;;;1.67;;
44750;SDS011;30477;48.224;11.470;2023-01-16T11:06:06;4.38;;;1.60;;
44750;SDS011;30477;48.224;11.470;2023-01-16T11:08:47;2.42;;;1.50;;
44750;SDS011;30477;48.224;11.470;2023-01-16T11:11:14;2.08;;;1.30;;
44750;SDS011;30477;48.224;11.470;2023-01-16T11:13:59;3.20;;;1.63;;
44750;SDS011;30477;48.224;11.470;2023-01-16T11:16:47;1.80;;;1.42;;
44750;SDS011;30477;48.224;11.470;2023-01-16T11:19:40;1.80;;;1.48;;
44750;SDS011;30477;48.224;11.470;2023-01-16T11:22:09;4.85;;;1.70;;
44750;SDS011;30477;48.224;11.470;2023-01-16T11:24:46;2.03;;;1.20;;
44750;SDS011;30477;48.224;11.470;2023-01-16T11:27:14;1.90;;;1.27;;
44750;SDS011;30477;48.224;11.470;2023-01-16T11:29:45;1.50;;;1.40;;
44750;SDS011;30477;48.224;11.470;2023-01-16T11:32:14;2.33;;;1.33;;
44750;SDS011;30477;48.224;11.470;2023-01-16T11:34:43;2.28;;;1.65;;
44750;SDS011;30477;48.224;11.470;2023-01-16T11:37:11;2.92;;;1.95;;
44750;SDS011;30477;48.224;11.470;2023-01-16T11:39:40;2.00;;;1.40;;
44750;SDS011;30477;48.224;11.470;2023-01-16T11:42:08;4.40;;;1.58;;
44750;SDS011;30477;48.224;11.470;2023-01-16T11:44:55;3.55;;;1.73;;
44750;SDS011;30477;48.224;11.470;2023-01-16T11:47:42;3.45;;;1.17;;
44750;SDS011;30477;48.224;11.470;2023-01-16T11:52:47;2.92;;;1.38;;
44750;SDS011;30477;48.224;11.470;2023-01-16T11:55:12;1.85;;;1.40;;
44750;SDS011;30477;48.224;11.470;2023-01-16T12:02:54;1.27;;;1.10;;
44750;SDS011;30477;48.224;11.470;2023-01-16T12:05:57;1.45;;;1.33;;
44750;SDS011;30477;48.224;11.470;2023-01-16T12:11:15;3.63;;;1.55;;
44750;SDS011;30477;48.224;11.470;2023-01-16T12:24:50;3.75;;;1.38;;
44750;SDS011;30477;48.224;11.470;2023-01-16T12:27:34;1.77;;;1.50;;
44750;SDS011;30477;48.224;11.470;2023-01-16T12:38:17;2.45;;;1.60;;
44750;SDS011;30477;48.224;11.470;2023-01-16T12:41:03;3.42;;;2.00;;
44750;SDS011;30477;48.224;11.470;2023-01-16T12:48:59;2.53;;;1.40;;
44750;SDS011;30477;48.224;11.470;2023-01-16T12:51:37;3.15;;;1.70;;
44750;SDS011;30477;48.224;11.470;2023-01-16T12:54:07;4.15;;;1.80;;
44750;SDS011;30477;48.224;11.470;2023-01-16T12:56:59;2.58;;;1.50;;
44750;SDS011;30477;48.224;11.470;2023-01-16T12:59:38;10.77;;;4.55;;
44750;SDS011;30477;48.224;11.470;2023-01-16T13:04:38;6.65;;;3.30;;
44750;SDS011;30477;48.224;11.470;2023-01-16T13:07:15;3.97;;;1.83;;
44750;SDS011;30477;48.224;11.470;2023-01-16T13:12:26;4.85;;;2.30;;
44750;SDS011;30477;48.224;11.470;2023-01-16T13:15:19;3.90;;;2.20;;
44750;SDS011;30477;48.224;11.470;2023-01-16T13:17:50;3.80;;;2.90;;
44750;SDS011;30477;48.224;11.470;2023-01-16T13:20:21;5.07;;;2.78;;
44750;SDS011;30477;48.224;11.470;2023-01-16T13:22:54;3.53;;;2.30;;
44750;SDS011;30477;48.224;11.470;2023-01-16T13:25:28;3.05;;;2.08;;
44750;SDS011;30477;48.224;11.470;2023-01-16T13:28:02;2.22;;;1.63;;
44750;SDS011;30477;48.224;11.470;2023-01-16T13:30:37;4.78;;;2.00;;
44750;SDS011;30477;48.224;11.470;2023-01-16T13:33:04;2.73;;;1.77;;
44750;SDS011;30477;48.224;11.470;2023-01-16T13:41:09;2.53;;;2.10;;
44750;SDS011;30477;48.224;11.470;2023-01-16T13:43:40;2.85;;;2.00;;
44750;SDS011;30477;48.224;11.470;2023-01-16T13:46:28;4.18;;;2.58;;
44750;SDS011;30477;48.224;11.470;2023-01-16T13:48:56;7.47;;;3.10;;
44750;SDS011;30477;48.224;11.470;2023-01-16T13:51:25;2.60;;;1.95;;
44750;SDS011;30477;48.224;11.470;2023-01-16T13:53:51;3.60;;;2.40;;
44750;SDS011;30477;48.224;11.470;2023-01-16T13:56:23;3.45;;;2.10;;
44750;SDS011;30477;48.224;11.470;2023-01-16T13:59:00;5.57;;;2.17;;
44750;SDS011;30477;48.224;11.470;2023-01-16T14:01:35;2.80;;;2.30;;
44750;SDS011;30477;48.224;11.470;2023-01-16T14:06:50;3.22;;;1.90;;
44750;SDS011;30477;48.224;11.470;2023-01-16T14:12:31;3.67;;;2.08;;
44750;SDS011;30477;48.224;11.470;2023-01-16T14:18:13;7.47;;;2.80;;
44750;SDS011;30477;48.224;11.470;2023-01-16T14:23:28;3.80;;;2.30;;
44750;SDS011;30477;48.224;11.470;2023-01-16T14:26:21;3.17;;;2.15;;
44750;SDS011;30477;48.224;11.470;2023-01-16T14:28:48;5.50;;;1.90;;
44750;SDS011;30477;48.224;11.470;2023-01-16T14:31:26;3.10;;;2.28;;
44750;SDS011;30477;48.224;11.470;2023-01-16T14:34:02;4.68;;;2.10;;
44750;SDS011;30477;48.224;11.470;2023-01-16T14:36:27;2.75;;;1.70;;
44750;SDS011;30477;48.224;11.470;2023-01-16T14:38:57;4.18;;;2.00;;
44750;SDS011;30477;48.224;11.470;2023-01-16T14:41:26;2.40;;;1.73;;
44750;SDS011;30477;48.224;11.470;2023-01-16T14:44:30;3.42;;;1.80;;
44750;SDS011;30477;48.224;11.470;2023-01-16T14:50:11;4.63;;;1.93;;
44750;SDS011;30477;48.224;11.470;2023-01-16T14:58:42;4.60;;;2.20;;
44750;SDS011;30477;48.224;11.470;2023-01-16T15:01:21;3.28;;;2.42;;
44750;SDS011;30477;48.224;11.470;2023-01-16T15:04:10;10.27;;;2.07;;
44750;SDS011;30477;48.224;11.470;2023-01-16T15:06:43;3.92;;;2.10;;
44750;SDS011;30477;48.224;11.470;2023-01-16T15:09:18;3.92;;;1.88;;
44750;SDS011;30477;48.224;11.470;2023-01-16T15:12:34;3.40;;;2.47;;
44750;SDS011;30477;48.224;11.470;2023-01-16T15:14:36;4.45;;;2.00;;
44750;SDS011;30477;48.224;11.470;2023-01-16T15:19:56;2.47;;;2.00;;
44750;SDS011;30477;48.224;11.470;2023-01-16T15:22:51;2.75;;;1.75;;
44750;SDS011;30477;48.224;11.470;2023-01-16T15:33:25;3.75;;;2.70;;
44750;SDS011;30477;48.224;11.470;2023-01-16T15:36:15;3.78;;;2.63;;
44750;SDS011;30477;48.224;11.470;2023-01-16T15:38:55;5.45;;;3.20;;
44750;SDS011;30477;48.224;11.470;2023-01-16T15:41:30;6.55;;;3.60;;
44750;SDS011;30477;48.224;11.470;2023-01-16T15:44:17;7.85;;;4.07;;
44750;SDS011;30477;48.224;11.470;2023-01-16T15:50:42;7.53;;;4.50;;
44750;SDS011;30477;48.224;11.470;2023-01-16T15:53:07;9.88;;;4.63;;
44750;SDS011;30477;48.224;11.470;2023-01-16T15:55:41;9.48;;;4.28;;
44750;SDS011;30477;48.224;11.470;2023-01-16T15:58:18;8.05;;;4.32;;
44750;SDS011;30477;48.224;11.470;2023-01-16T16:00:52;9.02;;;4.18;;
44750;SDS011;30477;48.224;11.470;2023-01-16T16:03:42;7.53;;;3.50;;
44750;SDS011;30477;48.224;11.470;2023-01-16T16:06:11;10.30;;;3.38;;
44750;SDS011;30477;48.224;11.470;2023-01-16T16:08:39;3.67;;;3.33;;
44750;SDS011;30477;48.224;11.470;2023-01-16T16:11:16;7.43;;;3.50;;
44750;SDS011;30477;48.224;11.470;2023-01-16T16:14:02;5.57;;;3.30;;
44750;SDS011;30477;48.224;11.470;2023-01-16T16:16:58;4.65;;;2.95;;
44750;SDS011;30477;48.224;11.470;2023-01-16T16:19:46;7.30;;;3.20;;
44750;SDS011;30477;48.224;11.470;2023-01-16T16:22:13;8.27;;;3.60;;
44750;SDS011;30477;48.224;11.470;2023-01-16T16:25:07;8.68;;;3.50;;
44750;SDS011;30477;48.224;11.470;2023-01-16T16:27:37;4.60;;;3.25;;
44750;SDS011;30477;48.224;11.470;2023-01-16T16:30:06;5.10;;;3.58;;
44750;SDS011;30477;48.224;11.470;2023-01-16T16:32:41;5.68;;;3.15;;
44750;SDS011;30477;48.224;11.470;2023-01-16T16:35:15;5.63;;;3.40;;
44750;SDS011;30477;48.224;11.470;2023-01-16T16:37:44;18.77;;;11.50;;
44750;SDS011;30477;48.224;11.470;2023-01-16T16:47:44;6.93;;;3.85;;
44750;SDS011;30477;48.224;11.470;2023-01-16T16:52:45;11.15;;;4.40;;
44750;SDS011;30477;48.224;11.470;2023-01-16T16:55:34;10.32;;;4.25;;
44750;SDS011;30477;48.224;11.470;2023-01-16T16:58:04;10.52;;;4.40;;
44750;SDS011;30477;48.224;11.470;2023-01-16T17:00:31;9.70;;;4.68;;
44750;SDS011;30477;48.224;11.470;2023-01-16T17:03:06;10.43;;;4.90;;
44750;SDS011;30477;48.224;11.470;2023-01-16T17:05:35;11.15;;;6.25;;
44750;SDS011;30477;48.224;11.470;2023-01-16T17:08:01;15.63;;;6.50;;
44750;SDS011;30477;48.224;11.470;2023-01-16T17:10:26;9.65;;;6.15;;
44750;SDS011;30477;48.224;11.470;2023-01-16T17:12:52;11.93;;;6.83;;
44750;SDS011;30477;48.224;11.470;2023-01-16T17:15:18;19.67;;;9.38;;
44750;SDS011;30477;48.224;11.470;2023-01-16T17:17:44;31.77;;;11.40;;
44750;SDS011;30477;48.224;11.470;2023-01-16T17:20:14;25.55;;;11.45;;
44750;SDS011;30477;48.224;11.470;2023-01-16T17:22:39;31.13;;;11.60;;
44750;SDS011;30477;48.224;11.470;2023-01-16T17:25:08;36.70;;;11.17;;
44750;SDS011;30477;48.224;11.470;2023-01-16T17:27:40;32.88;;;12.60;;
44750;SDS011;30477;48.224;11.470;2023-01-16T17:30:06;39.53;;;13.05;;
44750;SDS011;30477;48.224;11.470;2023-01-16T17:32:33;38.50;;;12.40;;
44750;SDS011;30477;48.224;11.470;2023-01-16T17:34:58;38.70;;;13.07;;
44750;SDS011;30477;48.224;11.470;2023-01-16T17:37:24;34.20;;;11.40;;
44750;SDS011;30477;48.224;11.470;2023-01-16T17:39:49;37.63;;;13.80;;